Time;durP1;ratioP1;P1;durP2;ratioP2;P2;SDS_P1;SDS_P2;PMS_P1;PMS_P2;Temp;Humidity;BMP_temperature;BMP_pressure;BME280_temperature;BME280_humidity;BME280_pressure;Samples;Min_cycle;Max_cycle;Signal;HPM_P1;HPM_P2
2021/10/30 00:00:13;;;;;;;;;21.75;19.50;;;;;20.81;100.00;99842.41;5042597;28;47693;-81
2021/10/30 00:02:39;;;;;;;;;24.00;18.00;;;;;21.05;100.00;99841.19;5061345;28;45215;-81
2021/10/30 00:05:07;;;;;;;;;26.25;21.75;;;;;21.02;100.00;99822.81;5045705;28;45241;-81
2021/10/30 00:07:33;;;;;;;;;22.00;18.25;;;;;21.03;100.00;99825.25;5044416;28;45441;-81
2021/10/30 00:09:59;;;;;;;;;22.50;18.75;;;;;21.12;100.00;99829.47;5058327;28;46085;-81
2021/10/30 00:12:25;;;;;;;;;19.00;17.00;;;;;21.06;100.00;99807.94;5051442;28;45789;-80
2021/10/30 00:14:50;;;;;;;;;20.00;18.50;;;;;21.04;100.00;99816.19;5044542;28;45249;-81
2021/10/30 00:17:15;;;;;;;;;21.00;17.75;;;;;20.81;100.00;99816.41;5040278;28;45361;-81
2021/10/30 00:19:41;;;;;;;;;20.75;16.00;;;;;20.95;100.00;99817.34;5042732;28;46200;-81
2021/10/30 00:22:08;;;;;;;;;19.50;17.00;;;;;20.72;100.00;99801.47;5042621;28;45223;-81
2021/10/30 00:24:34;;;;;;;;;14.00;13.00;;;;;20.73;100.00;99794.25;5040168;28;45387;-81
2021/10/30 00:27:04;;;;;;;;;22.75;18.75;;;;;20.75;100.00;99802.94;5026044;28;46211;-81
2021/10/30 00:29:30;;;;;;;;;20.00;17.00;;;;;20.74;100.00;99804.78;5063330;28;45388;-81
2021/10/30 00:31:56;;;;;;;;;17.00;17.00;;;;;20.73;100.00;99797.75;5055160;28;44889;-80
2021/10/30 00:34:22;;;;;;;;;23.75;17.75;;;;;20.70;100.00;99791.94;5038392;28;44773;-80
2021/10/30 00:36:49;;;;;;;;;24.25;19.00;;;;;20.90;100.00;99791.09;5023563;28;46074;-81
2021/10/30 00:39:14;;;;;;;;;22.75;17.50;;;;;20.64;100.00;99792.72;5040223;28;45863;-81
2021/10/30 00:41:40;;;;;;;;;15.75;15.50;;;;;20.71;100.00;99789.06;5040462;28;45199;-81
2021/10/30 00:44:12;;;;;;;;;22.25;18.75;;;;;20.55;100.00;99786.66;5042430;28;45148;-81
2021/10/30 00:46:46;;;;;;;;;20.50;16.00;;;;;20.39;100.00;99784.22;5043010;28;45462;-81
2021/10/30 00:49:15;;;;;;;;;16.75;14.25;;;;;20.14;100.00;99764.91;5040299;28;45308;-81
2021/10/30 00:51:43;;;;;;;;;18.50;15.50;;;;;20.08;100.00;99771.03;5040098;28;45253;-81
2021/10/30 00:54:11;;;;;;;;;15.00;13.75;;;;;20.14;100.00;99770.28;5040032;28;45372;-81
2021/10/30 00:56:37;;;;;;;;;19.75;18.50;;;;;20.24;100.00;99769.97;5033251;28;45486;-81
2021/10/30 00:59:09;;;;;;;;;17.50;15.75;;;;;20.31;100.00;99769.03;5059984;28;45410;-81
2021/10/30 01:01:38;;;;;;;;;13.50;11.00;;;;;20.34;100.00;99773.19;5059797;28;45666;-81
2021/10/30 01:04:04;;;;;;;;;14.75;11.00;;;;;20.39;100.00;99776.16;5060160;28;45178;-81
2021/10/30 01:06:32;;;;;;;;;16.75;13.75;;;;;20.37;100.00;99760.25;5059815;28;45554;-81
2021/10/30 01:08:57;;;;;;;;;14.00;13.00;;;;;20.36;100.00;99758.59;5059900;28;45415;-81
2021/10/30 01:11:23;;;;;;;;;18.25;15.25;;;;;20.45;100.00;99752.09;5059774;28;45346;-81
2021/10/30 01:13:49;;;;;;;;;16.75;12.50;;;;;20.58;100.00;99748.69;5047413;28;45463;-81
2021/10/30 01:16:20;;;;;;;;;14.50;14.00;;;;;20.74;100.00;99736.88;5041530;28;45642;-81
2021/10/30 01:18:46;;;;;;;;;12.25;12.25;;;;;20.62;100.00;99738.41;5063242;28;46412;-81
2021/10/30 01:21:12;;;;;;;;;16.50;12.75;;;;;20.63;100.00;99740.91;5063356;28;45410;-81
2021/10/30 01:23:37;;;;;;;;;13.50;13.25;;;;;20.57;100.00;99733.66;5045552;28;45378;-81
2021/10/30 01:26:03;;;;;;;;;12.75;12.50;;;;;20.62;100.00;99736.56;5066726;28;45352;-81
2021/10/30 01:28:31;;;;;;;;;13.75;12.50;;;;;20.65;100.00;99730.00;5071596;28;45342;-81
2021/10/30 01:30:58;;;;;;;;;17.75;14.25;;;;;20.67;100.00;99744.06;5063235;28;45331;-81
2021/10/30 01:33:24;;;;;;;;;17.00;15.00;;;;;20.45;100.00;99722.59;5063386;28;45270;-81
2021/10/30 01:35:49;;;;;;;;;18.75;14.00;;;;;20.46;100.00;99718.06;5063048;28;45193;-81
2021/10/30 01:38:15;;;;;;;;;19.25;11.75;;;;;20.56;100.00;99715.06;5063063;28;45315;-81
2021/10/30 01:40:47;;;;;;;;;15.00;13.50;;;;;20.62;100.00;99708.91;5045001;28;46110;-81
2021/10/30 01:43:14;;;;;;;;;19.50;13.75;;;;;20.40;100.00;99708.91;5063462;28;45261;-81
2021/10/30 01:45:41;;;;;;;;;12.00;11.50;;;;;20.41;100.00;99715.09;5062707;28;45445;-81
2021/10/30 01:48:07;;;;;;;;;9.50;9.50;;;;;20.23;100.00;99717.38;5044890;28;47144;-81
2021/10/30 01:50:32;;;;;;;;;12.00;9.75;;;;;28.14;100.00;99676.66;5062917;28;45318;-81
2021/10/30 01:53:00;;;;;;;;;12.25;11.50;;;;;23.29;100.00;99704.88;5063299;28;45393;-80
2021/10/30 01:55:27;;;;;;;;;15.00;13.50;;;;;21.44;100.00;99717.97;5046039;28;45450;-81
2021/10/30 01:57:52;;;;;;;;;14.25;10.75;;;;;20.83;100.00;99700.84;5055305;28;47013;-80
2021/10/30 02:00:18;;;;;;;;;14.25;12.00;;;;;20.33;100.00;99702.63;5062863;28;45266;-80
2021/10/30 02:02:44;;;;;;;;;15.25;13.25;;;;;20.44;100.00;99699.47;5065256;28;45284;-80
2021/10/30 02:05:11;;;;;;;;;16.75;12.50;;;;;20.27;100.00;99692.69;5064537;28;45700;-80
2021/10/30 02:07:37;;;;;;;;;12.00;12.00;;;;;20.71;100.00;99694.34;5066017;28;45406;-80
2021/10/30 02:10:03;;;;;;;;;14.75;11.75;;;;;20.62;100.00;99682.91;5062955;28;45577;-80
2021/10/30 02:12:29;;;;;;;;;12.75;12.25;;;;;19.96;100.00;99681.41;5065468;28;45390;-80
2021/10/30 02:14:54;;;;;;;;;15.25;13.00;;;;;19.90;100.00;99666.09;5047936;28;45565;-80
2021/10/30 02:17:20;;;;;;;;;23.00;14.25;;;;;19.86;100.00;99664.81;5044146;28;47675;-80
2021/10/30 02:19:46;;;;;;;;;14.50;13.00;;;;;20.16;100.00;99647.63;5044384;28;45785;-80
2021/10/30 02:22:11;;;;;;;;;14.75;12.75;;;;;20.30;100.00;99648.59;5062780;28;45398;-80
2021/10/30 02:24:36;;;;;;;;;20.00;14.00;;;;;20.50;100.00;99636.19;5062530;28;45300;-80
2021/10/30 02:27:02;;;;;;;;;21.25;13.25;;;;;20.77;100.00;99638.03;5064396;28;45224;-80
2021/10/30 02:29:27;;;;;;;;;14.00;11.00;;;;;20.85;100.00;99637.03;5064827;28;45328;-80
2021/10/30 02:31:53;;;;;;;;;14.00;12.00;;;;;20.79;100.00;99635.16;5062389;28;45233;-80
2021/10/30 02:34:18;;;;;;;;;17.00;15.00;;;;;20.53;100.00;99643.84;5044074;28;45360;-81
2021/10/30 02:36:44;;;;;;;;;14.00;14.00;;;;;20.63;100.00;99630.94;5062430;28;46670;-81
2021/10/30 02:39:12;;;;;;;;;14.50;13.00;;;;;20.28;100.00;99627.31;5062214;28;45201;-80
2021/10/30 02:41:38;;;;;;;;;15.75;13.25;;;;;20.54;100.00;99621.38;5044340;28;45374;-80
2021/10/30 02:44:04;;;;;;;;;21.25;15.25;;;;;20.64;100.00;99611.13;5044437;28;45440;-80
2021/10/30 02:46:29;;;;;;;;;14.50;12.50;;;;;20.95;100.00;99608.00;5064334;28;46392;-80
2021/10/30 02:48:55;;;;;;;;;17.25;14.00;;;;;20.70;100.00;99599.59;5065520;28;45299;-80
2021/10/30 02:51:20;;;;;;;;;23.25;17.00;;;;;20.68;100.00;99609.69;5062957;28;45291;-80
2021/10/30 02:53:46;;;;;;;;;24.25;15.25;;;;;20.80;100.00;99602.75;5043800;28;45999;-81
2021/10/30 02:56:11;;;;;;;;;18.00;15.75;;;;;20.99;100.00;99595.03;5069700;28;45408;-81
2021/10/30 02:58:37;;;;;;;;;18.75;12.25;;;;;21.45;100.00;99603.31;5065833;28;45224;-80
2021/10/30 03:01:02;;;;;;;;;16.25;14.75;;;;;21.54;100.00;99591.34;5061865;28;45281;-81
2021/10/30 03:03:28;;;;;;;;;20.50;14.50;;;;;21.46;100.00;99589.69;5026964;28;45397;-81
2021/10/30 03:05:53;;;;;;;;;19.75;16.25;;;;;21.03;100.00;99574.81;5061737;28;45229;-81
2021/10/30 03:08:18;;;;;;;;;15.75;14.25;;;;;20.87;100.00;99571.44;5061845;28;45257;-81
2021/10/30 03:10:44;;;;;;;;;13.50;13.50;;;;;20.77;100.00;99568.28;5062051;28;45211;-81
2021/10/30 03:13:10;;;;;;;;;18.25;16.75;;;;;20.85;100.00;99545.81;5048858;28;45249;-81
2021/10/30 03:15:36;;;;;;;;;15.00;15.00;;;;;20.62;100.00;99538.06;5061568;28;46468;-80
2021/10/30 03:18:01;;;;;;;;;15.00;13.50;;;;;20.76;100.00;99534.41;5043357;28;45273;-80
2021/10/30 03:20:26;;;;;;;;;23.00;14.75;;;;;20.94;100.00;99530.41;5061719;28;45358;-81
2021/10/30 03:22:52;;;;;;;;;11.50;10.50;;;;;20.76;100.00;99517.50;5061498;28;45355;-81
2021/10/30 03:25:17;;;;;;;;;19.75;15.00;;;;;20.71;100.00;99514.59;5061593;28;45310;-81
2021/10/30 03:27:42;;;;;;;;;19.50;13.00;;;;;20.79;100.00;99512.56;5051136;28;45376;-80
2021/10/30 03:30:08;;;;;;;;;15.00;13.25;;;;;20.91;100.00;99510.97;5065149;28;45324;-81
2021/10/30 03:32:34;;;;;;;;;12.50;11.75;;;;;20.77;100.00;99509.25;5042861;28;46186;-81
2021/10/30 03:34:59;;;;;;;;;18.75;13.75;;;;;21.09;100.00;99502.38;5061203;28;46289;-81
2021/10/30 03:37:25;;;;;;;;;18.75;13.50;;;;;21.22;100.00;99497.06;5061291;28;45268;-81
2021/10/30 03:39:54;;;;;;;;;13.50;12.25;;;;;21.07;100.00;99504.41;5060656;28;45499;-80
2021/10/30 03:42:20;;;;;;;;;15.25;14.25;;;;;21.24;100.00;99496.84;5042706;28;45521;-81
2021/10/30 03:44:45;;;;;;;;;15.00;12.75;;;;;21.09;100.00;99494.31;5061135;28;46097;-81
2021/10/30 03:47:11;;;;;;;;;23.75;17.00;;;;;21.02;100.00;99482.72;5042632;28;45241;-80
2021/10/30 03:49:36;;;;;;;;;15.50;12.00;;;;;21.39;100.00;99472.53;5061439;28;45146;-81
2021/10/30 03:52:03;;;;;;;;;16.50;13.25;;;;;21.13;100.00;99478.59;5042960;28;45462;-80
2021/10/30 03:54:28;;;;;;;;;14.75;13.50;;;;;21.14;100.00;99488.31;5061369;28;45377;-80
2021/10/30 03:56:54;;;;;;;;;15.25;13.00;;;;;21.11;100.00;99480.69;5073221;28;45393;-80
2021/10/30 03:59:19;;;;;;;;;18.25;16.75;;;;;21.16;100.00;99480.91;5043068;28;45362;-81
2021/10/30 04:01:44;;;;;;;;;15.50;13.00;;;;;21.48;100.00;99474.81;5042583;28;45369;-81
2021/10/30 04:04:10;;;;;;;;;18.75;14.00;;;;;20.79;100.00;99479.53;5042653;28;48208;-81
2021/10/30 04:06:35;;;;;;;;;15.75;14.00;;;;;20.91;100.00;99478.78;5061301;28;45267;-80
2021/10/30 04:09:01;;;;;;;;;15.00;12.25;;;;;20.94;100.00;99476.72;5046369;28;45517;-80
2021/10/30 04:11:26;;;;;;;;;12.00;11.25;;;;;21.02;100.00;99480.06;5063592;28;45336;-81
2021/10/30 04:13:52;;;;;;;;;14.00;12.50;;;;;21.16;100.00;99464.78;5066492;28;45208;-81
2021/10/30 04:16:17;;;;;;;;;12.50;12.00;;;;;21.18;100.00;99468.16;5060206;28;45237;-81
2021/10/30 04:18:44;;;;;;;;;14.75;13.50;;;;;21.36;100.00;99464.88;5060716;28;45352;-81
2021/10/30 04:21:11;;;;;;;;;13.75;12.00;;;;;21.22;100.00;99470.19;5060487;28;45146;-80
2021/10/30 04:23:36;;;;;;;;;16.00;12.75;;;;;21.12;100.00;99468.94;5060523;28;45330;-81
2021/10/30 04:26:02;;;;;;;;;7.00;6.50;;;;;21.20;100.00;99482.19;5061115;28;45557;-80
2021/10/30 04:28:27;;;;;;;;;12.25;10.00;;;;;21.41;100.00;99470.44;5065042;28;45514;-80
2021/10/30 04:30:53;;;;;;;;;8.00;7.25;;;;;21.32;100.00;99487.78;5060052;28;45482;-81
2021/10/30 04:33:18;;;;;;;;;13.00;8.00;;;;;21.41;100.00;99471.28;5060418;28;45350;-80
2021/10/30 04:35:44;;;;;;;;;13.00;11.25;;;;;21.42;100.00;99472.09;5060407;28;45257;-81
2021/10/30 04:38:09;;;;;;;;;15.75;10.00;;;;;21.51;100.00;99477.06;5060539;28;45407;-80
2021/10/30 04:40:35;;;;;;;;;14.00;12.00;;;;;21.54;100.00;99492.78;5045832;28;45536;-80
2021/10/30 04:43:01;;;;;;;;;19.25;12.25;;;;;21.50;100.00;99462.00;5022677;28;47544;-80
2021/10/30 04:45:27;;;;;;;;;10.75;10.75;;;;;21.41;100.00;99473.13;5022041;28;45335;-81
2021/10/30 04:47:52;;;;;;;;;13.00;10.75;;;;;21.21;100.00;99475.81;5032782;28;45209;-80
2021/10/30 04:50:17;;;;;;;;;11.75;10.50;;;;;20.95;100.00;99473.81;5052587;28;45159;-80
2021/10/30 04:52:44;;;;;;;;;14.00;10.00;;;;;20.46;100.00;99476.69;5057295;28;45211;-79
2021/10/30 04:55:10;;;;;;;;;13.00;11.00;;;;;20.58;100.00;99475.09;5046293;28;45217;-80
2021/10/30 04:57:35;;;;;;;;;12.75;11.25;;;;;20.64;100.00;99470.81;5051533;28;45515;-82
2021/10/30 05:00:01;;;;;;;;;15.50;11.25;;;;;20.46;100.00;99474.03;5080463;28;44741;-80
2021/10/30 05:02:26;;;;;;;;;12.00;9.50;;;;;20.61;100.00;99469.34;5074599;28;45892;-80
2021/10/30 05:04:52;;;;;;;;;12.75;11.00;;;;;20.42;100.00;99451.28;5061343;28;45351;-80
2021/10/30 05:07:17;;;;;;;;;12.00;10.00;;;;;20.83;100.00;99448.59;5060616;28;45407;-80
2021/10/30 05:09:43;;;;;;;;;10.25;9.00;;;;;20.95;100.00;99454.19;5060352;28;45374;-80
2021/10/30 05:12:09;;;;;;;;;9.75;8.50;;;;;20.74;100.00;99445.28;5060175;28;45328;-80
2021/10/30 05:14:35;;;;;;;;;11.25;10.25;;;;;20.71;100.00;99445.66;5066403;28;45619;-80
2021/10/30 05:17:00;;;;;;;;;6.50;6.50;;;;;20.61;100.00;99450.56;5059801;28;45318;-80
2021/10/30 05:19:26;;;;;;;;;11.75;9.50;;;;;20.62;100.00;99438.81;5060007;28;45395;-80
2021/10/30 05:21:51;;;;;;;;;9.50;9.50;;;;;20.76;100.00;99450.44;5059750;28;46208;-80
2021/10/30 05:24:16;;;;;;;;;11.50;9.00;;;;;20.49;100.00;99441.41;5041586;28;45308;-80
2021/10/30 05:26:42;;;;;;;;;8.75;8.75;;;;;20.15;100.00;99437.72;5041655;28;45280;-80
2021/10/30 05:29:07;;;;;;;;;10.00;7.50;;;;;20.66;100.00;99447.31;5066194;28;45468;-80
2021/10/30 05:31:33;;;;;;;;;12.50;9.75;;;;;20.73;100.00;99437.41;5049690;28;46041;-80
2021/10/30 05:33:58;;;;;;;;;12.50;7.50;;;;;20.65;100.00;99440.28;5060347;28;45232;-80
2021/10/30 05:36:26;;;;;;;;;10.75;8.75;;;;;20.30;100.00;99444.81;5059865;28;45135;-80
2021/10/30 05:38:53;;;;;;;;;15.75;10.00;;;;;20.56;100.00;99444.16;5059637;28;45463;-80
2021/10/30 05:41:19;;;;;;;;;8.00;8.00;;;;;20.58;100.00;99432.19;5041432;28;48234;-80
2021/10/30 05:43:45;;;;;;;;;12.25;9.25;;;;;20.74;100.00;99442.59;5059374;28;45308;-80
2021/10/30 05:46:11;;;;;;;;;8.75;8.75;;;;;20.56;100.00;99442.31;5059624;28;45312;-80
2021/10/30 05:48:37;;;;;;;;;9.00;7.25;;;;;20.40;100.00;99437.25;5041569;28;45428;-80
2021/10/30 05:51:04;;;;;;;;;8.50;8.00;;;;;20.61;100.00;99430.97;5059622;28;45866;-80
2021/10/30 05:53:30;;;;;;;;;10.50;7.25;;;;;20.56;100.00;99447.66;5041366;28;45450;-80
2021/10/30 05:55:56;;;;;;;;;9.50;7.00;;;;;20.79;100.00;99439.28;5065145;28;45330;-80
2021/10/30 05:58:21;;;;;;;;;13.25;9.50;;;;;20.88;100.00;99432.72;5065642;28;45511;-80
2021/10/30 06:00:46;;;;;;;;;7.25;6.25;;;;;20.94;100.00;99423.03;5059310;28;45931;-80
2021/10/30 06:03:12;;;;;;;;;12.25;10.00;;;;;20.80;100.00;99428.34;5041141;28;45474;-80
2021/10/30 06:05:38;;;;;;;;;10.00;10.00;;;;;20.80;100.00;99432.91;5044622;28;45394;-80
2021/10/30 06:08:04;;;;;;;;;9.75;7.00;;;;;20.99;100.00;99426.75;5044741;28;45518;-80
2021/10/30 06:10:30;;;;;;;;;8.00;7.00;;;;;21.12;100.00;99431.34;5066347;28;45349;-80
2021/10/30 06:12:56;;;;;;;;;9.00;6.75;;;;;21.23;100.00;99428.06;5069790;28;45517;-80
2021/10/30 06:15:21;;;;;;;;;10.50;8.25;;;;;21.17;100.00;99423.50;5044410;28;45326;-80
2021/10/30 06:17:48;;;;;;;;;12.25;6.25;;;;;21.05;100.00;99427.78;5044264;28;45376;-80
2021/10/30 06:20:14;;;;;;;;;7.00;7.00;;;;;21.28;100.00;99431.00;5062914;28;45327;-80
2021/10/30 06:22:42;;;;;;;;;10.00;6.25;;;;;21.26;100.00;99425.00;5062409;28;45158;-81
2021/10/30 06:25:09;;;;;;;;;8.00;6.00;;;;;21.40;100.00;99415.91;5044695;28;45276;-80
2021/10/30 06:27:35;;;;;;;;;11.50;9.00;;;;;21.42;100.00;99424.59;5050020;28;45570;-81
2021/10/30 06:30:00;;;;;;;;;7.25;6.50;;;;;21.57;100.00;99424.41;5062310;28;46204;-81
2021/10/30 06:32:26;;;;;;;;;8.50;6.50;;;;;21.42;100.00;99421.06;5062109;28;45370;-81
2021/10/30 06:34:51;;;;;;;;;9.75;9.75;;;;;21.52;100.00;99432.25;5044206;28;45437;-81
2021/10/30 06:37:17;;;;;;;;;9.00;6.50;;;;;21.58;100.00;99418.81;5062376;28;45495;-80
2021/10/30 06:39:42;;;;;;;;;8.00;6.25;;;;;21.51;100.00;99426.03;5044389;28;48131;-81
2021/10/30 06:42:07;;;;;;;;;7.50;7.25;;;;;21.57;100.00;99429.78;5062257;28;45220;-80
2021/10/30 06:44:33;;;;;;;;;9.25;7.75;;;;;21.55;100.00;99421.91;5044124;28;45364;-81
2021/10/30 06:46:58;;;;;;;;;10.50;6.25;;;;;21.52;100.00;99424.19;5043793;28;45538;-81
2021/10/30 06:49:25;;;;;;;;;9.00;8.00;;;;;21.53;100.00;99417.78;5044587;28;47733;-80
2021/10/30 06:51:51;;;;;;;;;9.00;7.25;;;;;21.50;100.00;99424.38;5047520;28;45250;-80
2021/10/30 06:54:17;;;;;;;;;10.00;8.25;;;;;21.54;100.00;99420.25;5046245;28;45185;-80
2021/10/30 06:56:42;;;;;;;;;6.00;5.50;;;;;21.39;100.00;99403.53;5055515;28;45485;-81
2021/10/30 06:59:08;;;;;;;;;5.00;5.00;;;;;21.46;100.00;99414.28;5043832;28;47208;-80
2021/10/30 07:01:35;;;;;;;;;7.25;6.00;;;;;21.56;100.00;99414.69;5061744;28;45372;-81
2021/10/30 07:04:02;;;;;;;;;6.75;6.75;;;;;21.64;100.00;99412.63;5061809;28;45354;-81
2021/10/30 07:06:28;;;;;;;;;5.25;5.00;;;;;21.54;100.00;99400.63;5062003;28;45253;-81
2021/10/30 07:08:56;;;;;;;;;5.50;5.00;;;;;21.46;100.00;99407.03;5043683;28;47133;-81
2021/10/30 07:11:22;;;;;;;;;7.00;6.00;;;;;21.50;100.00;99410.13;5043664;28;45533;-81
2021/10/30 07:13:47;;;;;;;;;8.25;6.00;;;;;21.30;100.00;99410.13;5043708;28;45415;-81
2021/10/30 07:16:15;;;;;;;;;7.25;7.25;;;;;21.21;100.00;99408.69;5043266;28;45356;-81
2021/10/30 07:18:41;;;;;;;;;10.75;5.75;;;;;21.36;100.00;99405.78;5043366;28;46373;-81
2021/10/30 07:21:06;;;;;;;;;5.50;4.75;;;;;21.26;100.00;99404.34;5061645;28;45454;-81
2021/10/30 07:23:31;;;;;;;;;7.00;5.00;;;;;21.51;100.00;99407.22;5061736;28;45614;-80
2021/10/30 07:25:57;;;;;;;;;5.00;5.00;;;;;21.54;100.00;99411.38;5061651;28;45344;-81
2021/10/30 07:28:23;;;;;;;;;10.25;5.00;;;;;21.91;100.00;99401.84;5067048;28;45169;-81
2021/10/30 07:30:48;;;;;;;;;5.75;5.25;;;;;21.96;100.00;99408.22;5061749;28;45221;-81
2021/10/30 07:33:13;;;;;;;;;6.00;6.00;;;;;21.78;100.00;99408.06;5047198;28;45158;-81
2021/10/30 07:35:39;;;;;;;;;5.00;5.00;;;;;21.71;100.00;99392.97;5044513;28;45365;-80
2021/10/30 07:38:04;;;;;;;;;4.75;4.75;;;;;21.69;100.00;99422.72;5061162;28;46050;-80
2021/10/30 07:40:31;;;;;;;;;6.50;5.25;;;;;21.81;100.00;99399.59;5061253;28;45271;-81
2021/10/30 07:42:57;;;;;;;;;4.50;4.50;;;;;21.73;100.00;99407.03;5054789;28;45154;-81
2021/10/30 07:45:23;;;;;;;;;6.75;4.75;;;;;22.05;100.00;99416.94;5023035;28;45392;-80
2021/10/30 07:47:49;;;;;;;;;6.50;5.00;;;;;22.11;100.00;99410.72;5023066;28;48311;-81
2021/10/30 07:50:14;;;;;;;;;4.75;4.50;;;;;21.56;100.00;99422.75;5041283;28;45411;-81
2021/10/30 07:52:40;;;;;;;;;5.25;5.00;;;;;21.85;100.00;99424.19;5023303;28;45357;-81
2021/10/30 07:55:07;;;;;;;;;5.00;5.00;;;;;21.88;100.00;99427.28;5040905;28;45432;-81
2021/10/30 07:57:32;;;;;;;;;6.50;5.00;;;;;21.90;100.00;99433.28;5046509;28;48181;-81
2021/10/30 07:59:58;;;;;;;;;9.50;6.25;;;;;21.82;100.00;99433.50;5061530;28;45269;-81
2021/10/30 08:02:23;;;;;;;;;7.25;6.50;;;;;21.93;100.00;99440.09;5061157;28;45606;-81
2021/10/30 08:04:49;;;;;;;;;6.00;4.75;;;;;21.76;100.00;99438.88;5042895;28;45452;-81
2021/10/30 08:07:14;;;;;;;;;4.00;3.75;;;;;21.98;100.00;99440.31;5060808;28;46172;-81
2021/10/30 08:09:43;;;;;;;;;5.50;4.00;;;;;22.08;100.00;99442.56;5061105;28;45313;-81
2021/10/30 08:12:12;;;;;;;;;5.50;4.50;;;;;22.25;100.00;99449.16;5064156;28;45313;-81
2021/10/30 08:14:38;;;;;;;;;7.50;6.00;;;;;21.80;100.00;99443.63;5044406;28;45416;-80
2021/10/30 08:17:04;;;;;;;;;6.75;4.75;;;;;21.86;100.00;99452.69;5041007;28;45517;-81
2021/10/30 08:19:30;;;;;;;;;5.75;4.00;;;;;22.00;100.00;99451.69;5040457;28;45220;-81
2021/10/30 08:21:55;;;;;;;;;5.00;5.00;;;;;22.08;100.00;99447.97;5040873;28;45535;-81
2021/10/30 08:24:21;;;;;;;;;7.25;6.00;;;;;22.41;100.00;99454.09;5054918;28;45257;-81
2021/10/30 08:26:46;;;;;;;;;4.75;4.75;;;;;22.25;100.00;99468.81;5052051;28;45509;-81
2021/10/30 08:29:11;;;;;;;;;7.75;5.50;;;;;22.10;100.00;99464.72;5066014;28;45411;-81
2021/10/30 08:31:37;;;;;;;;;5.25;5.25;;;;;22.05;100.00;99454.56;5060758;28;45358;-81
2021/10/30 08:34:03;;;;;;;;;6.00;6.00;;;;;22.32;100.00;99445.41;5060291;28;45493;-81
2021/10/30 08:36:28;;;;;;;;;6.00;5.25;;;;;22.45;100.00;99463.41;5060554;28;45455;-81
2021/10/30 08:38:54;;;;;;;;;5.00;5.00;;;;;23.03;100.00;99453.47;5042255;28;45845;-81
2021/10/30 08:41:20;;;;;;;;;6.50;5.00;;;;;23.31;100.00;99457.66;5060861;28;45305;-81
2021/10/30 08:43:48;;;;;;;;;9.75;5.00;;;;;23.33;100.00;99458.25;5042233;28;45567;-81
2021/10/30 08:46:14;;;;;;;;;6.75;5.00;;;;;23.45;100.00;99457.34;5059973;28;45377;-81
2021/10/30 08:48:40;;;;;;;;;4.75;4.75;;;;;23.45;100.00;99451.13;5060346;28;45540;-81
2021/10/30 08:51:06;;;;;;;;;7.00;6.75;;;;;23.39;100.00;99449.31;5060937;28;45158;-80
2021/10/30 08:53:31;;;;;;;;;5.75;5.75;;;;;23.43;100.00;99456.72;5063021;28;45272;-81
2021/10/30 08:56:03;;;;;;;;;6.25;6.00;;;;;23.56;100.00;99452.31;5061026;28;46312;-81
2021/10/30 08:58:29;;;;;;;;;6.00;5.00;;;;;23.33;100.00;99460.94;5060303;28;45225;-81
2021/10/30 09:00:58;;;;;;;;;9.00;6.00;;;;;23.21;100.00;99457.31;5042062;28;45460;-81
2021/10/30 09:03:24;;;;;;;;;7.00;6.00;;;;;23.24;100.00;99459.53;5060237;28;45485;-81
2021/10/30 09:05:53;;;;;;;;;5.75;4.25;;;;;23.41;100.00;99456.13;5051072;28;46319;-81
2021/10/30 09:08:25;;;;;;;;;6.00;5.75;;;;;23.43;100.00;99461.28;5025085;28;46052;-81
2021/10/30 09:10:54;;;;;;;;;6.50;6.00;;;;;23.42;100.00;99470.41;5032307;28;45331;-81
2021/10/30 09:13:22;;;;;;;;;5.75;5.00;;;;;22.97;100.00;99461.56;5043527;28;45558;-80
2021/10/30 09:15:50;;;;;;;;;5.75;5.00;;;;;22.84;100.00;99461.63;5059782;28;45449;-80
2021/10/30 09:18:29;;;;;;;;;3.00;3.00;;;;;23.00;100.00;99458.44;5041883;28;45331;-80
2021/10/30 09:21:14;;;;;;;;;7.00;7.00;;;;;22.68;100.00;99470.97;5040015;28;45246;-80
2021/10/30 09:24:12;;;;;;;;;5.00;5.00;;;;;22.96;100.00;99463.41;5048943;28;45423;-80
2021/10/30 09:26:37;;;;;;;;;9.25;5.00;;;;;22.81;100.00;99468.28;5063789;28;45537;-79
2021/10/30 09:29:09;;;;;;;;;6.50;4.50;;;;;23.00;100.00;99463.84;5081094;28;45631;-81
2021/10/30 09:31:35;;;;;;;;;6.75;6.50;;;;;22.92;100.00;99473.00;5072703;28;45242;-80
2021/10/30 09:34:06;;;;;;;;;5.25;4.25;;;;;22.85;100.00;99471.38;5045092;28;46155;-80
2021/10/30 09:36:35;;;;;;;;;5.50;4.50;;;;;22.87;100.00;99474.66;5063570;28;45596;-80
2021/10/30 09:39:07;;;;;;;;;8.25;7.00;;;;;22.57;100.00;99474.34;5061351;28;45562;-80
2021/10/30 09:41:41;;;;;;;;;6.00;6.00;;;;;22.81;100.00;99476.34;5054172;28;45289;-80
2021/10/30 09:44:08;;;;;;;;;9.25;7.00;;;;;23.16;100.00;99466.03;5060428;28;45574;-80
2021/10/30 09:46:44;;;;;;;;;6.75;6.00;;;;;22.98;100.00;99466.75;5063153;28;45377;-80
2021/10/30 09:49:27;;;;;;;;;8.25;5.25;;;;;22.89;100.00;99464.50;5045169;28;45786;-80
2021/10/30 09:52:05;;;;;;;;;6.00;3.25;;;;;22.75;100.00;99471.81;5063608;28;45154;-80
2021/10/30 09:54:34;;;;;;;;;7.75;7.00;;;;;22.93;100.00;99471.94;5063326;28;45321;-81
2021/10/30 09:57:00;;;;;;;;;5.75;5.75;;;;;22.74;100.00;99475.50;5055804;28;47251;-81
2021/10/30 09:59:27;;;;;;;;;9.75;8.25;;;;;22.69;100.00;99473.44;5044869;28;45336;-81
2021/10/30 10:01:53;;;;;;;;;5.75;5.75;;;;;22.89;100.00;99486.88;5044725;28;45284;-81
2021/10/30 10:04:20;;;;;;;;;8.25;8.25;;;;;22.78;100.00;99474.06;5062619;28;45192;-81
2021/10/30 10:06:48;;;;;;;;;7.75;7.00;;;;;22.72;100.00;99467.66;5044456;28;47342;-81
2021/10/30 10:09:15;;;;;;;;;6.50;6.50;;;;;22.87;100.00;99475.47;5044687;28;45392;-81
2021/10/30 10:11:51;;;;;;;;;7.00;5.75;;;;;22.82;100.00;99474.47;5062963;28;45378;-81
2021/10/30 10:14:19;;;;;;;;;8.25;7.00;;;;;22.81;100.00;99486.28;5069856;28;45615;-81
2021/10/30 10:16:47;;;;;;;;;9.00;7.25;;;;;22.95;100.00;99486.00;5065752;28;45185;-80
2021/10/30 10:19:12;;;;;;;;;7.25;7.00;;;;;22.81;100.00;99487.09;5063012;28;45713;-81
2021/10/30 10:21:39;;;;;;;;;9.25;8.00;;;;;22.92;100.00;99499.91;5062778;28;45344;-81
2021/10/30 10:24:12;;;;;;;;;9.00;8.75;;;;;22.83;100.00;99486.91;5062656;28;45485;-81
2021/10/30 10:26:51;;;;;;;;;6.25;5.75;;;;;22.59;100.00;99493.75;5044104;28;48033;-80
2021/10/30 10:29:35;;;;;;;;;6.00;5.00;;;;;25.12;100.00;99482.50;5057670;28;45359;-81
2021/10/30 10:32:22;;;;;;;;;5.75;5.25;;;;;24.33;100.00;99497.72;5044838;28;45512;-81
2021/10/30 10:34:48;;;;;;;;;7.75;5.50;;;;;24.53;100.00;99484.84;5062431;28;45401;-81
2021/10/30 10:37:14;;;;;;;;;7.75;7.75;;;;;23.80;100.00;99498.16;5062208;28;45565;-81
2021/10/30 10:39:56;;;;;;;;;5.75;4.50;;;;;24.13;100.00;99487.06;5062406;28;45229;-81
2021/10/30 10:42:36;;;;;;;;;6.00;6.00;;;;;23.81;100.00;99493.59;5062516;28;45485;-81
2021/10/30 10:45:06;;;;;;;;;6.00;5.50;;;;;23.87;100.00;99496.22;5062291;28;45443;-81
2021/10/30 10:47:35;;;;;;;;;10.25;7.00;;;;;24.25;100.00;99503.41;5061798;28;45322;-81
2021/10/30 10:50:12;;;;;;;;;9.25;6.50;;;;;24.63;100.00;99494.28;5062011;28;45239;-81
2021/10/30 10:52:43;;;;;;;;;7.50;7.50;;;;;24.68;100.00;99491.72;5062562;28;45419;-81
2021/10/30 10:55:09;;;;;;;;;5.75;5.25;;;;;24.66;100.00;99494.69;5064627;28;45423;-81
2021/10/30 10:57:43;;;;;;;;;10.50;7.50;;;;;24.67;100.00;99490.09;5077406;28;46385;-80
2021/10/30 11:00:20;;;;;;;;;6.25;6.25;;;;;24.87;100.00;99487.97;5047258;28;46550;-81
2021/10/30 11:02:48;;;;;;;;;4.75;4.75;;;;;24.75;100.00;99492.50;5062462;28;45242;-81
2021/10/30 11:05:20;;;;;;;;;10.00;8.00;;;;;24.55;100.00;99500.81;5043465;28;45666;-81
2021/10/30 11:07:49;;;;;;;;;7.00;7.00;;;;;24.39;100.00;99493.31;5043719;28;47107;-81
2021/10/30 11:10:20;;;;;;;;;10.00;8.00;;;;;24.54;100.00;99497.28;5043673;28;45383;-81
2021/10/30 11:13:01;;;;;;;;;7.00;7.00;;;;;24.57;100.00;99491.47;5066732;28;45232;-81
2021/10/30 11:15:42;;;;;;;;;7.25;6.00;;;;;24.74;100.00;99486.28;5049135;28;45352;-81